createdAt,value
2022-12-12T14:59:49.948Z,99062.66
2022-12-12T15:02:38.971Z,99056.53
2022-12-12T15:05:23.462Z,99060.31
2022-12-12T15:08:22.984Z,99061.00
2022-12-12T15:11:07.045Z,99070.31
2022-12-12T15:14:11.842Z,99067.94
2022-12-12T15:17:08.821Z,99074.91
2022-12-12T15:19:54.660Z,99073.44
2022-12-12T15:22:57.913Z,99085.72
2022-12-12T15:26:05.898Z,99086.09
2022-12-12T15:28:56.412Z,99084.78
2022-12-12T15:31:41.955Z,99093.25
2022-12-12T15:34:36.937Z,99097.63
2022-12-12T15:37:32.801Z,99091.06
2022-12-12T15:40:48.507Z,99091.44
2022-12-12T15:43:35.644Z,99094.75
2022-12-12T15:46:18.908Z,99096.19
2022-12-12T15:49:05.862Z,99095.34
2022-12-12T15:51:49.830Z,99097.03
2022-12-12T15:54:51.020Z,99097.84
2022-12-12T15:57:54.187Z,99098.19
2022-12-12T16:00:45.985Z,99098.38
2022-12-12T16:03:33.256Z,99093.44
2022-12-12T16:06:24.841Z,99103.53
2022-12-12T16:09:11.599Z,99099.06
2022-12-12T16:12:16.822Z,99100.88
2022-12-12T16:15:23.639Z,99104.03
2022-12-12T16:18:28.927Z,99107.72
2022-12-12T16:21:11.248Z,99107.38
2022-12-12T16:23:54.889Z,99099.75
2022-12-12T16:26:31.017Z,99118.69
2022-12-12T16:29:29.080Z,99113.41
2022-12-12T16:32:16.344Z,99112.13
2022-12-12T16:35:07.241Z,99111.25
2022-12-12T16:38:00.583Z,99111.47
2022-12-12T16:40:43.897Z,99122.38
2022-12-12T16:43:29.182Z,99122.59
2022-12-12T16:46:20.965Z,99122.06
2022-12-12T16:49:16.155Z,99124.09
2022-12-12T16:52:09.826Z,99130.06
2022-12-12T16:54:58.847Z,99133.53
2022-12-12T16:57:50.681Z,99132.47
2022-12-12T17:00:44.731Z,99130.47
2022-12-12T17:03:36.578Z,99130.78
2022-12-12T17:06:25.903Z,99127.47
2022-12-12T17:09:14.745Z,99131.84
2022-12-12T17:12:09.343Z,99133.50
2022-12-12T17:14:53.856Z,99134.94
2022-12-12T17:17:51.391Z,99132.97
2022-12-12T17:20:38.677Z,99133.97
2022-12-12T17:23:40.483Z,99142.22
2022-12-12T17:26:36.028Z,99134.75
2022-12-12T17:29:26.505Z,99132.97
2022-12-12T17:32:25.918Z,99135.84
2022-12-12T17:35:16.039Z,99128.19
2022-12-12T17:37:57.589Z,99134.53
2022-12-12T17:40:49.300Z,99132.72
2022-12-12T17:43:37.716Z,99137.41
2022-12-12T17:46:26.255Z,99138.28
2022-12-12T17:49:12.895Z,99146.03
2022-12-12T17:51:58.211Z,99145.47
2022-12-12T17:54:43.908Z,99147.81
2022-12-12T17:57:56.398Z,99151.97
2022-12-12T18:00:42.968Z,99151.28
2022-12-12T18:03:30.774Z,99162.25
2022-12-12T18:06:12.359Z,99158.16
2022-12-12T18:09:04.046Z,99165.34
2022-12-12T18:12:03.366Z,99163.25
2022-12-12T18:14:46.385Z,99163.94
2022-12-12T18:17:41.411Z,99158.94
2022-12-12T18:20:31.041Z,99158.94
2022-12-12T18:23:13.852Z,99166.50
2022-12-12T18:25:59.879Z,99168.09
2022-12-12T18:28:59.461Z,99174.53
2022-12-12T18:31:52.368Z,99179.50
2022-12-12T18:34:38.923Z,99170.38
2022-12-12T18:37:18.597Z,99165.72
2022-12-12T18:39:54.365Z,99173.28
2022-12-12T18:42:44.903Z,99174.91
2022-12-12T18:45:31.494Z,99169.28
2022-12-12T18:48:17.279Z,99175.41
2022-12-12T18:51:01.774Z,99177.91
2022-12-12T18:53:50.638Z,99182.09
2022-12-12T18:56:45.523Z,99188.78
2022-12-12T18:59:32.465Z,99182.97
2022-12-12T19:02:18.777Z,99191.88
2022-12-12T19:05:08.005Z,99191.38
2022-12-12T19:08:00.484Z,99201.53
2022-12-12T19:10:35.561Z,99195.25
2022-12-12T19:13:31.018Z,99196.13
2022-12-12T19:16:21.954Z,99191.47
2022-12-12T19:19:14.938Z,99200.63
2022-12-12T19:25:25.868Z,99212.03
2022-12-12T19:28:09.783Z,99211.56
2022-12-12T19:31:08.857Z,99212.78
2022-12-12T19:33:54.180Z,99213.81
2022-12-12T19:36:45.857Z,99217.81
2022-12-12T19:39:37.371Z,99218.59
2022-12-12T19:42:24.222Z,99227.75
2022-12-12T19:45:04.464Z,99226.34
2022-12-12T19:47:59.193Z,99224.88
2022-12-12T19:50:46.768Z,99231.84
2022-12-12T19:53:33.439Z,99239.81
2022-12-12T19:56:36.001Z,99246.84
2022-12-12T19:59:21.754Z,99254.25
2022-12-12T20:02:00.885Z,99255.91
2022-12-12T20:04:51.934Z,99253.66
2022-12-12T20:07:35.333Z,99252.50
2022-12-12T20:10:13.695Z,99260.81
2022-12-12T20:13:11.628Z,99258.19
2022-12-12T20:15:55.324Z,99256.25
2022-12-12T20:18:42.861Z,99251.41
2022-12-12T20:22:00.405Z,99243.09
2022-12-12T20:24:54.583Z,99252.94
2022-12-12T20:27:40.879Z,99258.22
2022-12-12T20:30:41.795Z,99261.88
2022-12-12T20:33:31.914Z,99274.50
2022-12-12T20:36:19.887Z,99283.06
2022-12-12T20:39:06.490Z,99284.78
2022-12-12T20:41:58.418Z,99284.03
2022-12-12T20:44:47.653Z,99282.38
2022-12-12T20:47:27.958Z,99295.06
2022-12-12T20:50:22.685Z,99292.28
2022-12-12T20:53:15.054Z,99298.63
2022-12-12T20:56:10.571Z,99290.31
2022-12-12T20:59:02.338Z,99289.94
2022-12-12T21:02:02.477Z,99294.53
2022-12-12T21:04:51.877Z,99294.16
2022-12-12T21:07:32.818Z,99291.28
2022-12-12T21:10:30.708Z,99288.81
2022-12-12T21:13:23.471Z,99290.44
2022-12-12T21:16:19.758Z,99294.97
2022-12-12T21:19:00.360Z,99295.44
2022-12-12T21:21:43.234Z,99294.97
2022-12-12T21:24:24.598Z,99291.59
2022-12-12T21:27:06.884Z,99290.13
2022-12-12T21:29:56.556Z,99295.75
2022-12-12T21:32:46.688Z,99298.41
2022-12-12T21:35:43.031Z,99307.16
2022-12-12T21:38:26.790Z,99312.94
2022-12-12T21:41:27.719Z,99308.47
2022-12-12T21:44:19.802Z,99312.09
2022-12-12T21:47:14.342Z,99308.53
2022-12-12T21:50:05.042Z,99309.53
2022-12-12T21:53:06.488Z,99301.72
2022-12-12T21:56:03.806Z,99308.53
2022-12-12T21:58:40.602Z,99313.00
2022-12-12T22:01:28.844Z,99313.78
2022-12-12T22:04:11.858Z,99309.22
2022-12-12T22:07:12.082Z,99311.44
2022-12-12T22:10:11.146Z,99310.19
2022-12-12T22:12:58.224Z,99306.03
2022-12-12T22:15:47.877Z,99309.06
2022-12-12T22:18:29.438Z,99306.41
2022-12-12T22:21:29.349Z,99310.03
2022-12-12T22:24:12.038Z,99313.38
2022-12-12T22:27:06.732Z,99306.16
2022-12-12T22:29:56.394Z,99311.59
2022-12-12T22:32:48.262Z,99311.47
2022-12-12T22:35:37.927Z,99307.75
2022-12-12T22:38:18.355Z,99315.34
2022-12-12T22:41:24.434Z,99315.16
2022-12-12T22:44:14.429Z,99311.94
2022-12-12T22:46:56.008Z,99309.31
2022-12-12T22:49:51.574Z,99313.13
2022-12-12T22:52:40.279Z,99316.06
2022-12-12T22:55:34.968Z,99332.81
2022-12-12T22:58:18.738Z,99334.31
2022-12-12T23:00:57.840Z,99331.84
2022-12-12T23:03:43.260Z,99336.41
2022-12-12T23:06:31.394Z,99336.44
2022-12-12T23:09:28.036Z,99348.50
2022-12-12T23:12:23.443Z,99341.44
2022-12-12T23:15:13.314Z,99342.03
2022-12-12T23:17:54.004Z,99338.97
2022-12-12T23:23:43.288Z,99344.81
2022-12-12T23:26:37.555Z,99342.75
2022-12-12T23:29:32.356Z,99338.94
2022-12-12T23:32:19.650Z,99351.09
2022-12-12T23:35:14.783Z,99358.91
2022-12-12T23:38:08.457Z,99354.84
2022-12-12T23:40:49.367Z,99350.41
2022-12-12T23:43:50.666Z,99349.59
2022-12-12T23:46:35.339Z,99353.06
2022-12-12T23:49:33.892Z,99357.19
2022-12-12T23:52:17.484Z,99359.31
2022-12-12T23:55:17.376Z,99359.44
2022-12-12T23:58:04.162Z,99357.78
